Time;durP1;ratioP1;P1;durP2;ratioP2;P2;SDS_P1;SDS_P2;PMS_P1;PMS_P2;Temp;Humidity;BMP_temperature;BMP_pressure;BME280_temperature;BME280_humidity;BME280_pressure;Samples;Min_cycle;Max_cycle;Signal;HPM_P1;HPM_P2
2023/03/11 00:00:45;;;;;;;2.23;1.53;;;2.90;70.60;;;5.72;47.81;96480.66;5034515;28;20049;-47
2023/03/11 00:03:16;;;;;;;1.17;1.07;;;3.00;69.70;;;5.55;47.28;96500.06;5034334;28;20541;-45
2023/03/11 00:05:45;;;;;;;1.60;0.97;;;2.90;70.30;;;5.57;47.62;96507.81;5033244;28;20432;-49
2023/03/11 00:08:20;;;;;;;2.10;1.30;;;2.80;71.60;;;5.55;47.74;96507.97;5033776;28;20045;-47
2023/03/11 00:10:52;;;;;;;1.77;1.20;;;2.80;71.50;;;5.43;48.80;96511.84;5032839;28;20041;-45
2023/03/11 00:13:21;;;;;;;2.93;1.37;;;2.70;72.50;;;5.19;48.28;96516.00;5032671;28;20497;-46
2023/03/11 00:15:54;;;;;;;1.83;1.17;;;2.60;72.50;;;5.45;48.51;96508.09;5034197;28;20037;-47
2023/03/11 00:18:25;;;;;;;1.50;1.10;;;2.60;73.30;;;5.74;48.19;96528.03;5034075;28;20056;-45
2023/03/11 00:20:55;;;;;;;1.70;1.40;;;2.80;73.10;;;5.60;47.58;96534.72;5033051;28;20053;-50
2023/03/11 00:23:25;;;;;;;4.60;1.50;;;2.80;72.50;;;5.68;47.61;96534.78;5032778;28;20060;-52
2023/03/11 00:25:53;;;;;;;1.67;1.37;;;2.80;72.90;;;5.60;48.47;96536.53;5033917;28;20045;-45
2023/03/11 00:28:24;;;;;;;2.37;1.63;;;2.70;73.20;;;5.50;48.44;96541.94;5033745;28;20060;-48
2023/03/11 00:30:51;;;;;;;3.20;1.40;;;2.70;72.70;;;5.28;48.59;96527.44;5032658;28;20037;-49
2023/03/11 00:33:19;;;;;;;2.50;1.50;;;2.60;73.60;;;5.56;48.31;96524.63;5033748;28;20041;-47
2023/03/11 00:35:48;;;;;;;2.03;1.33;;;2.70;74.20;;;5.58;48.71;96526.13;5033948;28;20068;-49
2023/03/11 00:38:16;;;;;;;2.50;1.50;;;2.70;73.60;;;5.73;47.98;96535.09;5032216;28;20049;-47
2023/03/11 00:40:46;;;;;;;2.20;1.33;;;2.80;72.80;;;5.88;47.53;96553.84;5031034;28;20053;-49
2023/03/11 00:43:15;;;;;;;1.47;1.10;;;2.90;72.80;;;5.45;48.63;96549.50;5033313;28;20069;-49
2023/03/11 00:45:43;;;;;;;2.03;1.93;;;2.70;72.60;;;5.46;48.29;96551.16;5032417;28;20045;-47
2023/03/11 00:48:12;;;;;;;3.33;1.67;;;2.70;73.10;;;5.36;49.46;96545.97;5033071;28;20052;-46
2023/03/11 00:50:39;;;;;;;4.40;1.73;;;2.60;74.30;;;5.44;49.52;96559.22;5016129;28;20040;-49
2023/03/11 00:53:07;;;;;;;1.53;1.17;;;2.70;74.30;;;5.52;49.10;96564.56;5032252;28;20082;-47
2023/03/11 00:55:35;;;;;;;2.80;1.50;;;2.70;74.10;;;5.47;49.04;96571.28;5033109;28;20068;-45
2023/03/11 00:58:06;;;;;;;3.77;1.70;;;2.70;74.50;;;5.53;49.12;96563.56;5031543;28;20053;-45
2023/03/11 01:00:40;;;;;;;2.28;1.40;;;2.60;75.40;;;5.39;49.69;96564.16;5024631;28;20394;-48
2023/03/11 01:03:08;;;;;;;2.30;1.60;;;2.50;75.20;;;5.32;49.35;96573.66;5032418;28;20496;-45
2023/03/11 01:05:35;;;;;;;2.60;1.77;;;2.50;75.60;;;5.63;48.20;96578.47;5016092;28;20052;-48
2023/03/11 01:08:03;;;;;;;2.57;1.33;;;2.60;75.30;;;5.61;48.47;96573.34;5031719;28;20063;-50
2023/03/11 01:10:35;;;;;;;3.80;1.80;;;2.60;75.00;;;5.61;48.42;96573.34;5023328;28;20072;-44
2023/03/11 01:13:04;;;;;;;2.53;1.70;;;2.60;74.90;;;5.39;48.81;96572.06;5031967;28;20041;-48
2023/03/11 01:15:36;;;;;;;3.33;1.57;;;2.50;74.50;;;5.32;48.90;96568.38;5030742;28;20501;-45
2023/03/11 01:18:05;;;;;;;3.63;2.00;;;2.40;75.40;;;5.53;48.08;96579.41;5031470;28;20433;-49
2023/03/11 01:20:36;;;;;;;3.67;1.53;;;2.50;75.50;;;5.41;48.37;96566.59;5023428;28;20046;-50
2023/03/11 01:23:05;;;;;;;4.17;1.50;;;2.40;74.80;;;5.12;49.71;96568.56;5015195;28;20417;-44
2023/03/11 01:25:34;;;;;;;1.53;1.10;;;2.30;75.70;;;5.16;48.96;96582.28;5032969;28;20428;-45
2023/03/11 01:28:01;;;;;;;1.60;1.20;;;2.30;75.00;;;4.81;50.15;96564.66;5032712;28;20050;-47
2023/03/11 01:30:30;;;;;;;3.80;1.70;;;2.20;75.60;;;5.04;49.71;96586.97;5031616;28;20045;-48
2023/03/11 01:32:57;;;;;;;2.80;1.70;;;2.20;76.10;;;5.17;49.54;96572.56;5032227;28;20046;-43
2023/03/11 01:35:28;;;;;;;1.80;1.10;;;2.30;76.20;;;5.02;49.47;96577.53;5030976;28;20412;-44
2023/03/11 01:37:57;;;;;;;2.23;1.53;;;2.20;75.90;;;5.00;49.64;96588.28;5032268;28;20041;-43
2023/03/11 01:40:47;;;;;;;3.40;1.73;;;2.10;76.50;;;4.87;49.89;96604.47;5032625;28;20056;-44
2023/03/11 01:43:41;;;;;;;2.80;1.57;;;2.20;76.00;;;4.97;49.49;96600.94;5032247;28;20433;-43
2023/03/11 01:46:30;;;;;;;2.77;1.37;;;2.20;75.20;;;5.13;48.80;96590.50;5030524;28;20057;-43
2023/03/11 01:49:02;;;;;;;4.73;2.20;;;2.30;75.50;;;5.09;49.79;96581.25;5031636;28;20056;-45
2023/03/11 01:51:50;;;;;;;5.28;1.80;;;2.20;75.60;;;5.16;48.97;96590.22;5031017;28;20038;-45
2023/03/11 01:54:24;;;;;;;3.13;1.43;;;2.20;76.00;;;5.18;49.10;96587.41;5015031;28;20425;-43
2023/03/11 01:56:54;;;;;;;2.27;1.70;;;2.10;76.20;;;5.01;48.94;96575.91;5030384;28;20053;-46
2023/03/11 01:59:28;;;;;;;3.50;1.53;;;2.10;75.70;;;5.22;48.67;96581.66;5015005;28;20047;-46
2023/03/11 02:02:10;;;;;;;1.98;1.30;;;2.10;76.40;;;5.01;49.43;96584.63;5014985;28;20053;-44
2023/03/11 02:04:40;;;;;;;2.73;1.50;;;2.10;75.60;;;5.12;48.77;96591.50;5023153;28;20050;-46
2023/03/11 02:07:10;;;;;;;2.40;1.30;;;2.10;74.70;;;5.21;48.29;96581.81;5015039;28;20424;-45
2023/03/11 02:09:38;;;;;;;2.30;1.27;;;2.20;73.90;;;5.01;49.00;96583.81;5007003;28;20041;-43
2023/03/11 02:12:09;;;;;;;2.23;1.30;;;2.10;73.60;;;4.65;48.86;96597.00;5030377;28;20061;-44
2023/03/11 02:14:41;;;;;;;1.80;1.10;;;2.00;73.40;;;4.95;48.41;96608.16;5031545;28;20040;-43
2023/03/11 02:17:09;;;;;;;2.37;1.40;;;2.00;74.20;;;4.93;48.83;96605.69;5014139;28;20053;-44
2023/03/11 02:20:11;;;;;;;2.07;1.57;;;2.00;74.80;;;4.69;49.08;96622.94;5030354;28;20041;-45
2023/03/11 02:22:43;;;;;;;2.43;1.13;;;1.80;75.20;;;4.63;49.14;96623.50;5016006;28;20046;-42
2023/03/11 02:25:45;;;;;;;2.93;2.00;;;1.70;75.80;;;4.54;49.53;96616.50;5014118;28;20041;-43
2023/03/11 02:28:16;;;;;;;3.53;1.90;;;1.60;76.00;;;4.50;49.35;96610.69;5030336;28;20049;-45
2023/03/11 02:30:45;;;;;;;2.73;1.37;;;1.50;76.80;;;4.51;48.88;96604.44;5030764;28;20056;-48
2023/03/11 02:33:14;;;;;;;2.27;1.97;;;1.50;75.80;;;4.55;48.78;96628.69;5030878;28;20057;-47
2023/03/11 02:35:44;;;;;;;2.73;2.13;;;1.50;75.00;;;4.40;48.61;96609.94;5014478;28;20046;-46
2023/03/11 02:38:12;;;;;;;1.17;1.07;;;1.40;74.20;;;4.38;48.90;96604.00;5031871;28;20053;-43
2023/03/11 02:41:00;;;;;;;2.23;1.27;;;1.40;73.90;;;4.14;48.47;96602.72;5022951;28;20049;-43
2023/03/11 02:43:44;;;;;;;5.60;1.47;;;1.30;72.20;;;4.21;47.86;96602.97;5031406;28;20045;-44
2023/03/11 02:46:14;;;;;;;3.65;1.25;;;1.20;73.10;;;4.33;48.14;96603.59;5013973;28;20056;-42
2023/03/11 02:48:43;;;;;;;1.30;1.10;;;1.30;72.50;;;4.05;47.72;96600.13;5006819;28;20041;-46
2023/03/11 02:51:12;;;;;;;1.83;1.20;;;1.20;71.20;;;4.04;47.82;96611.66;5014188;28;20041;-46
2023/03/11 02:53:49;;;;;;;2.63;0.90;;;1.10;71.30;;;4.18;47.33;96623.50;5030831;28;20053;-46
2023/03/11 02:56:17;;;;;;;3.40;1.10;;;1.10;70.40;;;3.97;46.96;96621.09;5029983;28;20056;-44
2023/03/11 02:58:45;;;;;;;1.80;1.30;;;1.00;69.40;;;3.81;46.67;96619.91;5030274;28;20041;-43
2023/03/11 03:01:13;;;;;;;3.10;1.10;;;1.00;69.30;;;3.99;46.92;96616.50;5030254;28;20060;-43
2023/03/11 03:03:44;;;;;;;1.10;0.90;;;1.00;70.10;;;3.92;46.99;96638.16;5022441;28;20048;-43
2023/03/11 03:06:12;;;;;;;2.37;1.33;;;0.90;70.10;;;3.91;47.42;96623.31;5030060;28;20350;-45
2023/03/11 03:08:40;;;;;;;2.80;1.40;;;1.00;70.60;;;4.08;46.86;96634.09;5013971;28;20452;-43
2023/03/11 03:11:08;;;;;;;2.03;0.83;;;1.00;71.00;;;4.18;46.48;96637.50;5030172;28;20064;-43
2023/03/11 03:13:35;;;;;;;2.70;1.37;;;1.00;70.80;;;4.17;46.66;96643.75;5030282;28;20418;-47
2023/03/11 03:16:03;;;;;;;1.97;1.10;;;1.00;69.80;;;4.14;46.13;96657.22;5029605;28;20049;-46
2023/03/11 03:18:32;;;;;;;1.80;1.10;;;1.10;69.40;;;4.16;46.80;96657.88;5029458;28;20297;-42
2023/03/11 03:21:00;;;;;;;2.63;1.23;;;1.00;69.90;;;4.09;46.32;96656.78;5030426;28;20049;-44
2023/03/11 03:23:28;;;;;;;3.23;1.43;;;1.00;69.90;;;4.06;46.59;96654.47;5013968;28;20509;-42
2023/03/11 03:25:56;;;;;;;1.80;1.10;;;0.90;70.80;;;4.10;46.64;96648.75;5029469;28;20065;-46
2023/03/11 03:28:24;;;;;;;2.63;1.10;;;0.90;70.80;;;3.94;46.93;96638.03;5029794;28;20057;-45
2023/03/11 03:30:51;;;;;;;2.23;0.90;;;0.80;70.60;;;4.03;46.57;96644.22;5031056;28;20041;-42
2023/03/11 03:33:19;;;;;;;3.37;1.10;;;0.90;70.80;;;3.93;46.59;96647.69;5031092;28;20045;-47
2023/03/11 03:35:48;;;;;;;1.57;1.00;;;0.80;70.60;;;3.96;46.67;96640.53;5029761;28;20456;-43
2023/03/11 03:38:20;;;;;;;2.27;1.10;;;0.80;70.90;;;3.91;47.26;96648.84;5029318;28;20046;-43
2023/03/11 03:40:49;;;;;;;3.50;0.90;;;0.70;71.50;;;3.86;47.30;96643.19;5029813;28;20056;-45
2023/03/11 03:43:19;;;;;;;1.57;1.10;;;0.70;71.70;;;3.77;47.34;96649.31;5029731;28;20045;-43
2023/03/11 03:46:00;;;;;;;4.33;1.33;;;0.70;72.50;;;3.86;47.15;96653.72;5029763;28;20041;-45
2023/03/11 03:48:34;;;;;;;1.73;1.63;;;0.60;72.20;;;3.72;47.74;96654.97;5029050;28;20046;-44
2023/03/11 03:51:13;;;;;;;4.37;1.20;;;0.50;72.70;;;3.73;47.32;96665.38;5029322;28;20382;-44
2023/03/11 03:53:51;;;;;;;2.50;1.00;;;0.60;72.70;;;3.84;47.10;96671.44;5007696;28;20048;-44
2023/03/11 03:56:19;;;;;;;3.10;1.00;;;0.70;73.10;;;3.88;47.43;96675.47;5012864;28;20464;-47
2023/03/11 03:58:46;;;;;;;2.60;1.13;;;0.70;73.00;;;3.91;47.71;96677.81;5030968;28;20043;-48
2023/03/11 04:01:14;;;;;;;2.00;1.47;;;0.70;73.00;;;4.01;47.30;96683.03;5013087;28;20509;-45
2023/03/11 04:03:42;;;;;;;4.03;1.20;;;0.80;73.00;;;4.02;47.34;96688.16;5029113;28;20049;-45
2023/03/11 04:06:25;;;;;;;2.90;1.10;;;0.80;72.40;;;4.09;47.41;96691.03;5029483;28;20041;-46
2023/03/11 04:08:57;;;;;;;1.97;1.60;;;1.00;72.50;;;4.17;47.22;96685.91;5029067;28;20064;-45
2023/03/11 04:11:32;;;;;;;;;;;0.90;72.20;;;4.17;47.34;96695.59;5031257;28;20049;-45
2023/03/11 04:14:01;;;;;;;2.80;1.10;;;1.00;71.30;;;4.30;46.92;96696.94;5013624;28;19932;-43
2023/03/11 04:16:31;;;;;;;3.17;1.30;;;1.10;71.20;;;4.22;46.93;96698.63;5028121;28;20402;-42
2023/03/11 04:19:04;;;;;;;3.17;1.45;;;0.90;71.50;;;4.10;47.45;96690.09;5017575;28;20046;-42
2023/03/11 04:21:32;;;;;;;2.77;1.30;;;0.80;72.30;;;3.98;47.34;96686.78;5032618;28;20050;-44
2023/03/11 04:24:00;;;;;;;1.53;1.10;;;0.70;72.60;;;4.06;46.95;96686.06;5032261;28;20057;-44
2023/03/11 04:26:32;;;;;;;2.77;1.50;;;0.80;72.80;;;4.16;47.23;96686.03;5032686;28;20060;-43
2023/03/11 04:29:00;;;;;;;1.33;0.93;;;0.90;72.40;;;4.19;47.64;96697.13;5033176;28;20609;-44
2023/03/11 04:31:31;;;;;;;2.70;1.00;;;0.90;72.30;;;4.17;47.04;96692.94;5032147;28;20053;-50
2023/03/11 04:34:02;;;;;;;3.10;1.30;;;1.00;72.10;;;4.22;47.51;96699.44;5032455;28;20053;-45
2023/03/11 04:36:30;;;;;;;2.80;1.33;;;1.00;72.10;;;4.22;46.88;96694.19;5032245;28;20041;-46
2023/03/11 04:38:58;;;;;;;3.40;1.37;;;0.90;72.30;;;4.23;46.88;96700.31;5032570;28;20045;-43
2023/03/11 04:41:29;;;;;;;3.13;1.37;;;1.00;72.10;;;4.27;47.41;96699.84;5032560;28;20050;-48
2023/03/11 04:43:58;;;;;;;1.87;1.40;;;1.00;72.30;;;4.32;46.71;96696.78;5033766;28;20421;-43
2023/03/11 04:46:25;;;;;;;3.00;1.07;;;1.00;72.10;;;4.29;46.56;96689.19;5033383;28;20505;-46
2023/03/11 04:48:53;;;;;;;1.43;0.97;;;1.00;72.00;;;4.31;47.05;96689.88;5032396;28;20040;-44
2023/03/11 04:51:21;;;;;;;2.20;1.40;;;1.00;71.90;;;4.34;47.01;96693.03;5032079;28;20053;-45
2023/03/11 04:53:48;;;;;;;5.47;1.70;;;1.00;72.00;;;4.33;47.25;96686.09;5024775;28;20496;-48
2023/03/11 04:56:16;;;;;;;2.10;1.40;;;1.00;72.20;;;4.32;47.52;96695.00;5031895;28;20053;-45
2023/03/11 04:58:44;;;;;;;2.90;1.27;;;1.00;72.60;;;4.33;47.09;96691.38;5032381;28;20041;-42
2023/03/11 05:01:12;;;;;;;4.17;1.50;;;1.00;72.30;;;4.36;47.30;96697.31;5031489;28;20054;-45
2023/03/11 05:03:40;;;;;;;3.13;1.63;;;1.10;72.60;;;4.46;47.19;96701.59;5031990;28;20050;-44
2023/03/11 05:06:09;;;;;;;2.37;1.23;;;1.10;72.70;;;4.52;47.25;96698.38;5032456;28;20060;-45
2023/03/11 05:08:37;;;;;;;3.53;1.43;;;1.20;72.70;;;4.53;46.83;96700.00;5032141;28;20049;-44
2023/03/11 05:11:05;;;;;;;3.00;1.47;;;1.10;72.70;;;4.57;46.90;96712.91;5031679;28;20050;-46
2023/03/11 05:13:33;;;;;;;5.87;1.70;;;1.20;73.00;;;4.59;47.14;96709.13;5015377;28;20049;-45
2023/03/11 05:16:02;;;;;;;2.93;1.70;;;1.20;72.70;;;4.58;47.59;96710.13;5031963;28;20046;-42
2023/03/11 05:18:31;;;;;;;4.03;2.00;;;1.20;72.60;;;4.56;47.43;96722.63;5032374;28;20052;-47
2023/03/11 05:20:59;;;;;;;4.70;1.50;;;1.10;72.70;;;4.49;46.43;96722.38;5033149;28;20049;-42
2023/03/11 05:23:30;;;;;;;2.97;1.30;;;1.10;72.60;;;4.43;47.32;96722.13;5031725;28;20045;-43
2023/03/11 05:25:58;;;;;;;2.30;1.43;;;1.00;72.70;;;4.38;47.31;96719.09;5031445;28;20480;-43
2023/03/11 05:28:27;;;;;;;2.37;1.27;;;1.00;72.70;;;4.36;46.83;96713.13;5031436;28;20409;-44
2023/03/11 05:30:55;;;;;;;3.77;1.63;;;1.00;72.30;;;4.32;47.45;96718.72;5031163;28;20057;-42
2023/03/11 05:33:22;;;;;;;3.30;1.53;;;0.90;72.70;;;4.29;47.23;96719.00;5033001;28;20044;-45
2023/03/11 05:35:53;;;;;;;5.57;1.33;;;0.90;72.80;;;4.32;47.22;96723.13;5031839;28;20049;-47
2023/03/11 05:38:21;;;;;;;2.83;1.63;;;0.90;72.80;;;4.31;47.19;96730.22;5030839;28;20041;-45
2023/03/11 05:40:48;;;;;;;3.60;1.47;;;1.00;72.50;;;4.30;47.18;96727.72;5022523;28;20052;-45
2023/03/11 05:43:16;;;;;;;3.17;1.60;;;0.90;72.40;;;4.27;47.17;96728.03;5032679;28;20071;-48
2023/03/11 05:45:51;;;;;;;2.03;1.30;;;1.00;73.10;;;4.27;47.39;96725.38;5016319;28;20064;-43
2023/03/11 05:48:19;;;;;;;4.97;1.80;;;1.00;72.30;;;4.31;46.74;96721.47;5030788;28;20061;-41
2023/03/11 05:50:46;;;;;;;2.80;1.47;;;1.00;71.70;;;4.32;46.90;96723.13;5030924;28;20041;-46
2023/03/11 05:53:14;;;;;;;4.07;1.50;;;1.00;71.90;;;4.35;46.73;96730.75;5032345;28;20037;-41
2023/03/11 05:55:42;;;;;;;2.80;1.13;;;1.00;71.70;;;4.31;46.55;96737.28;5030905;28;20056;-44
2023/03/11 05:58:10;;;;;;;4.20;1.40;;;1.00;71.40;;;4.29;46.69;96737.44;5031833;28;20037;-44
2023/03/11 06:00:37;;;;;;;4.03;1.60;;;1.00;71.70;;;4.34;46.88;96744.91;5031043;28;20049;-42
2023/03/11 06:03:05;;;;;;;4.17;2.00;;;1.00;71.60;;;4.34;46.75;96745.75;5030393;28;20057;-44
2023/03/11 06:05:33;;;;;;;2.93;1.50;;;1.00;71.50;;;4.36;46.49;96742.94;5031197;28;20060;-43
2023/03/11 06:08:00;;;;;;;2.87;1.90;;;1.00;71.50;;;4.40;47.02;96741.72;5031891;28;20041;-46
2023/03/11 06:10:28;;;;;;;2.63;1.37;;;1.00;71.50;;;4.41;46.91;96745.16;5030080;28;20505;-44
2023/03/11 06:12:56;;;;;;;1.93;1.40;;;1.00;71.30;;;4.43;47.25;96740.56;5031242;28;20076;-44
2023/03/11 06:15:33;;;;;;;3.80;1.43;;;1.10;71.50;;;4.48;46.56;96743.63;5030838;28;20057;-44
2023/03/11 06:18:01;;;;;;;2.10;1.07;;;1.10;71.00;;;4.51;46.05;96749.41;5029673;28;20523;-43
2023/03/11 06:20:28;;;;;;;5.43;1.60;;;1.10;70.70;;;4.51;46.62;96738.88;5014015;28;20041;-44
2023/03/11 06:22:56;;;;;;;2.23;1.30;;;1.10;71.20;;;4.54;46.48;96745.66;5030941;28;20056;-42
2023/03/11 06:25:25;;;;;;;3.93;1.40;;;1.10;70.90;;;4.56;45.93;96740.25;5030578;28;20053;-42
2023/03/11 06:27:54;;;;;;;6.83;2.50;;;1.10;70.70;;;4.56;45.90;96745.53;5023449;28;20037;-43
2023/03/11 06:30:23;;;;;;;2.47;1.10;;;1.10;71.00;;;4.57;46.46;96747.19;5031161;28;20056;-42
2023/03/11 06:32:58;;;;;;;2.17;1.20;;;1.10;70.90;;;4.57;45.99;96755.91;5030573;28;20052;-42
2023/03/11 06:35:26;;;;;;;6.27;1.20;;;1.10;71.00;;;4.56;46.67;96763.97;5031708;28;20048;-42
2023/03/11 06:37:55;;;;;;;4.80;2.43;;;1.10;70.80;;;4.59;46.16;96774.22;5021978;28;20053;-42
2023/03/11 06:40:22;;;;;;;3.07;1.47;;;1.20;71.00;;;4.61;46.60;96774.91;5030392;28;20052;-42
2023/03/11 06:42:50;;;;;;;3.50;1.50;;;1.20;70.20;;;4.59;46.02;96775.03;5030354;28;20050;-44
2023/03/11 06:45:22;;;;;;;3.20;1.40;;;1.20;70.30;;;4.54;46.89;96783.41;5029658;28;20056;-41
2023/03/11 06:47:51;;;;;;;4.50;1.60;;;1.10;70.60;;;4.53;46.80;96791.44;5029391;28;20046;-42
2023/03/11 06:50:22;;;;;;;4.50;1.43;;;1.10;70.80;;;4.56;46.98;96785.06;5030437;28;20416;-42
2023/03/11 06:52:50;;;;;;;3.23;1.63;;;1.20;70.40;;;4.56;46.78;96791.16;5030370;28;20045;-43
2023/03/11 06:55:19;;;;;;;2.23;1.53;;;1.10;71.00;;;4.50;46.38;96795.22;5030480;28;20049;-42
2023/03/11 06:57:47;;;;;;;5.93;1.63;;;1.10;70.60;;;4.34;46.57;96790.53;5037933;28;20435;-42
2023/03/11 07:00:16;;;;;;;1.67;1.20;;;1.00;71.00;;;4.43;46.83;96806.47;5029966;28;20053;-43
2023/03/11 07:02:48;;;;;;;4.25;1.60;;;1.00;71.30;;;4.40;46.58;96801.47;5027457;28;20053;-41
2023/03/11 07:05:17;;;;;;;2.47;1.53;;;1.00;70.50;;;4.37;46.75;96807.03;5012968;28;20049;-42
2023/03/11 07:07:47;;;;;;;3.60;1.33;;;0.90;70.90;;;4.48;46.21;96809.50;5029261;28;20046;-41
2023/03/11 07:10:15;;;;;;;4.73;1.17;;;1.00;71.90;;;4.45;46.69;96812.44;5028166;28;20053;-43
2023/03/11 07:12:43;;;;;;;2.50;1.23;;;1.10;70.90;;;4.56;46.16;96811.44;5029686;28;20050;-41
2023/03/11 07:15:11;;;;;;;3.70;1.30;;;1.20;70.50;;;4.39;47.13;96818.28;5030959;28;20046;-42
2023/03/11 07:17:39;;;;;;;4.13;2.30;;;1.10;70.40;;;4.34;46.36;96818.69;5027355;28;20412;-42
2023/03/11 07:20:08;;;;;;;4.37;2.00;;;1.00;70.40;;;4.48;46.13;96820.88;5029756;28;20054;-42
2023/03/11 07:22:35;;;;;;;3.17;1.77;;;1.20;70.80;;;4.57;47.12;96821.00;5030820;28;20053;-42
2023/03/11 07:25:03;;;;;;;2.77;1.30;;;1.30;70.40;;;4.61;46.39;96825.00;5031174;28;20060;-44
2023/03/11 07:27:31;;;;;;;3.70;2.37;;;1.30;70.30;;;4.62;46.31;96827.50;5029399;28;20060;-42
2023/03/11 07:30:01;;;;;;;4.77;2.37;;;1.30;71.40;;;4.53;46.39;96831.81;5031131;28;20050;-42
2023/03/11 07:32:28;;;;;;;4.53;1.83;;;1.20;69.90;;;4.59;46.05;96826.94;5031079;28;20525;-41
2023/03/11 07:34:56;;;;;;;2.37;1.33;;;1.20;70.70;;;4.68;46.84;96839.28;5023212;28;20512;-42
2023/03/11 07:37:24;;;;;;;4.33;1.47;;;1.30;70.30;;;4.73;46.07;96848.41;5030461;28;20049;-42
2023/03/11 07:39:51;;;;;;;3.83;1.47;;;1.40;69.50;;;4.76;46.17;96857.00;5030778;28;20045;-41
2023/03/11 07:42:19;;;;;;;5.63;2.40;;;1.40;69.60;;;4.78;46.03;96855.88;5030766;28;20038;-41
2023/03/11 07:44:50;;;;;;;4.40;1.67;;;1.50;69.70;;;4.63;46.04;96852.88;5029614;28;20046;-44
2023/03/11 07:47:18;;;;;;;3.77;2.23;;;1.30;68.90;;;4.56;45.64;96867.63;5030570;28;20045;-42
2023/03/11 07:49:46;;;;;;;5.43;1.37;;;1.20;68.50;;;4.53;46.49;96862.63;5030675;28;20049;-42
2023/03/11 07:52:13;;;;;;;4.53;1.77;;;1.20;69.40;;;4.53;46.48;96862.63;5034506;28;20421;-43
2023/03/11 07:54:41;;;;;;;4.17;1.23;;;1.20;69.20;;;4.57;45.73;96868.44;5034386;28;20046;-43
2023/03/11 07:57:15;;;;;;;1.97;1.57;;;1.30;68.60;;;4.37;46.21;96871.13;5034017;28;20045;-42
2023/03/11 07:59:43;;;;;;;;;;;1.20;68.30;;;4.39;45.84;96869.16;5033571;28;20051;-41
2023/03/11 08:02:10;;;;;;;5.33;1.60;;;1.20;68.20;;;4.52;45.64;96867.06;5034393;28;19921;-42
2023/03/11 08:04:38;;;;;;;4.63;1.70;;;1.20;67.90;;;4.57;45.77;96868.44;5034757;28;20053;-44
2023/03/11 08:07:05;;;;;;;15.73;2.67;;;1.30;68.20;;;4.51;46.21;96870.66;5034083;28;20044;-41
2023/03/11 08:09:36;;;;;;;5.37;1.50;;;1.30;67.20;;;4.48;46.07;96864.88;5034152;28;20046;-42
2023/03/11 08:12:04;;;;;;;3.43;1.27;;;1.30;67.50;;;4.39;46.42;96874.44;5034320;28;20046;-43
2023/03/11 08:14:32;;;;;;;5.07;1.20;;;1.30;67.40;;;4.47;45.87;96881.66;5034504;28;20425;-41
2023/03/11 08:16:59;;;;;;;4.80;1.67;;;1.30;67.70;;;4.50;45.93;96884.00;5026384;28;20052;-42
2023/03/11 08:19:27;;;;;;;5.57;1.97;;;1.30;67.30;;;4.65;46.26;96887.88;5033366;28;20497;-42
2023/03/11 08:21:54;;;;;;;5.27;1.87;;;1.50;67.90;;;4.68;46.00;96879.66;5034212;28;20029;-42
2023/03/11 08:24:22;;;;;;;1.77;1.37;;;1.50;66.30;;;4.59;45.47;96874.41;5034260;28;20049;-45
2023/03/11 08:26:49;;;;;;;3.33;1.73;;;1.40;66.10;;;4.43;46.13;96885.53;5033613;28;20060;-43
2023/03/11 08:29:17;;;;;;;3.47;1.63;;;1.40;66.10;;;4.58;45.41;96889.41;5034003;28;20050;-43
2023/03/11 08:31:44;;;;;;;3.10;1.87;;;1.40;67.20;;;4.51;45.66;96894.38;5033905;28;20050;-43
2023/03/11 08:34:13;;;;;;;6.23;2.53;;;1.40;65.90;;;4.44;45.45;96893.31;5033570;28;20038;-41
2023/03/11 08:36:41;;;;;;;3.17;1.50;;;1.40;66.90;;;4.21;45.87;96902.50;5032392;28;20042;-44
2023/03/11 08:39:08;;;;;;;4.07;1.33;;;1.30;66.80;;;4.26;46.04;96897.63;5033709;28;20048;-42
2023/03/11 08:41:36;;;;;;;6.33;1.73;;;1.30;66.70;;;4.53;45.67;96899.53;5033603;28;20045;-44
2023/03/11 08:44:04;;;;;;;8.97;1.50;;;1.40;67.00;;;4.54;45.48;96904.66;5032479;28;20523;-43
2023/03/11 08:46:35;;;;;;;5.03;1.80;;;1.50;66.00;;;4.62;45.34;96900.50;5033396;28;20045;-44
2023/03/11 08:49:05;;;;;;;2.97;1.30;;;1.50;65.70;;;4.60;44.69;96910.34;5024608;28;20045;-43
2023/03/11 08:51:33;;;;;;;3.60;1.70;;;1.50;64.70;;;4.61;45.48;96915.47;5033066;28;20041;-42
2023/03/11 08:54:02;;;;;;;4.10;1.57;;;1.50;66.40;;;4.51;45.25;96912.84;5032082;28;20046;-43
2023/03/11 08:56:30;;;;;;;5.13;2.30;;;1.50;65.20;;;4.62;45.30;96911.88;5032034;28;20045;-43
2023/03/11 08:58:58;;;;;;;5.03;1.87;;;1.50;66.00;;;4.82;44.82;96917.91;5033389;28;20048;-41
2023/03/11 09:01:25;;;;;;;3.73;2.00;;;1.60;65.20;;;5.00;44.56;96912.75;5031485;28;20508;-43
2023/03/11 09:03:53;;;;;;;5.53;1.80;;;1.80;65.20;;;5.06;44.85;96914.81;5033144;28;20037;-44
2023/03/11 09:06:21;;;;;;;6.40;2.50;;;1.90;65.50;;;5.20;44.81;96921.41;5032978;28;20048;-46
2023/03/11 09:08:48;;;;;;;3.97;2.10;;;2.00;64.30;;;5.24;44.82;96914.03;5033054;28;20045;-42
2023/03/11 09:11:17;;;;;;;3.53;1.83;;;2.10;65.30;;;5.20;44.02;96916.13;5033142;28;20041;-44
2023/03/11 09:13:45;;;;;;;3.43;1.60;;;2.00;63.20;;;5.10;44.32;96916.16;5033180;28;20048;-42
2023/03/11 09:16:16;;;;;;;5.23;1.40;;;1.90;63.70;;;5.19;43.90;96919.72;5032808;28;20045;-42
2023/03/11 09:18:44;;;;;;;4.83;1.50;;;1.90;64.10;;;5.22;44.15;96921.28;5032321;28;20045;-43
2023/03/11 09:21:12;;;;;;;5.43;1.67;;;2.00;63.80;;;5.15;43.71;96920.19;5031810;28;20060;-42
2023/03/11 09:23:40;;;;;;;2.57;1.40;;;2.00;62.80;;;5.28;44.00;96929.41;5031528;28;20064;-43
2023/03/11 09:26:11;;;;;;;4.33;1.57;;;2.10;63.10;;;5.39;44.29;96931.06;5032527;28;20421;-42
2023/03/11 09:28:40;;;;;;;5.03;1.30;;;2.10;62.20;;;5.43;43.88;96929.78;5031725;28;20049;-41
2023/03/11 09:31:08;;;;;;;4.40;1.60;;;2.20;61.90;;;5.44;43.57;96934.06;5033196;28;20045;-41
2023/03/11 09:33:41;;;;;;;2.83;1.40;;;2.20;60.80;;;5.34;43.79;96943.84;5032718;28;20064;-42
2023/03/11 09:36:15;;;;;;;4.37;2.10;;;2.10;61.20;;;5.22;42.93;96935.28;5025225;28;20037;-41
2023/03/11 09:38:43;;;;;;;4.43;1.15;;;2.00;60.90;;;5.35;43.28;96929.69;5031776;28;20045;-42
2023/03/11 09:41:17;;;;;;;5.90;1.50;;;2.10;62.20;;;5.43;43.54;96929.78;5032704;28;20579;-41
2023/03/11 09:44:16;;;;;;;2.65;1.35;;;2.20;62.20;;;5.42;43.14;96922.00;5032757;28;20037;-41
2023/03/11 09:46:59;;;;;;;3.03;1.40;;;2.20;63.00;;;5.67;43.88;96929.22;5032153;28;20042;-41
2023/03/11 09:50:14;;;;;;;4.30;2.10;;;2.40;63.20;;;5.89;43.85;96922.72;5031761;28;20037;-41
2023/03/11 09:52:52;;;;;;;7.20;1.70;;;2.70;62.20;;;6.09;43.51;96931.34;5032225;28;20421;-42
2023/03/11 09:55:39;;;;;;;2.40;1.50;;;2.90;61.70;;;6.14;42.92;96930.88;5031918;28;20041;-42
2023/03/11 09:58:35;;;;;;;2.73;1.00;;;3.10;60.30;;;6.22;42.10;96925.72;5023078;28;20044;-44
2023/03/11 10:01:25;;;;;;;2.33;0.80;;;3.10;57.70;;;6.23;41.44;96926.53;5028704;28;20120;-43
2023/03/11 10:04:00;;;;;;;2.03;1.13;;;3.00;54.60;;;6.19;41.69;96931.28;5030730;28;20516;-42
2023/03/11 10:06:29;;;;;;;2.83;1.57;;;2.90;57.90;;;6.22;41.60;96927.50;5030653;28;20049;-42
2023/03/11 10:09:31;;;;;;;6.30;2.10;;;2.90;56.70;;;6.12;41.01;96924.94;5030910;28;20394;-43
2023/03/11 10:12:38;;;;;;;3.27;1.93;;;2.90;55.70;;;5.83;41.31;96931.22;5031856;28;20121;-42
2023/03/11 10:15:41;;;;;;;5.27;1.93;;;2.60;57.60;;;6.05;41.90;96929.19;5013608;28;20057;-42
2023/03/11 10:18:26;;;;;;;5.83;2.60;;;2.70;58.50;;;6.28;41.19;96927.75;5019968;28;20049;-42
2023/03/11 10:21:16;;;;;;;4.50;2.03;;;2.90;57.00;;;6.30;40.69;96930.19;5031088;28;20069;-42
2023/03/11 10:24:18;;;;;;;5.03;2.43;;;3.00;56.60;;;6.27;40.78;96927.88;5031695;28;20042;-44
2023/03/11 10:26:53;;;;;;;4.27;1.37;;;2.90;54.10;;;6.53;40.98;96919.16;5013047;28;20054;-42
2023/03/11 10:29:31;;;;;;;4.07;1.57;;;3.10;56.20;;;6.72;40.38;96931.38;5030670;28;20052;-42
2023/03/11 10:32:36;;;;;;;1.80;1.40;;;3.40;55.30;;;6.81;40.25;96918.06;5031281;28;20044;-42
2023/03/11 10:35:21;;;;;;;2.17;1.73;;;3.50;54.20;;;6.89;40.13;96917.28;5016365;28;20045;-43
2023/03/11 10:38:06;;;;;;;3.88;1.52;;;3.50;55.40;;;6.56;40.32;96924.16;5030003;28;20050;-42
2023/03/11 10:40:40;;;;;;;4.43;1.80;;;3.30;55.70;;;6.68;40.65;96928.22;5014852;28;20030;-44
2023/03/11 10:43:42;;;;;;;6.27;1.63;;;3.30;56.00;;;6.55;39.52;96930.41;5023924;28;20042;-42
2023/03/11 10:46:24;;;;;;;2.03;1.37;;;3.30;54.60;;;6.50;39.14;96925.59;5022663;28;20045;-47
2023/03/11 10:48:51;;;;;;;3.77;1.77;;;3.20;54.40;;;6.36;39.82;96926.97;5030158;28;20049;-42
2023/03/11 10:51:26;;;;;;;1.43;1.10;;;2.90;54.60;;;6.39;39.34;96924.00;5031619;28;20300;-43